createdAt,value
2023-05-21T00:00:03.383Z,18.6429
2023-05-21T00:01:03.405Z,19.8571
2023-05-21T00:02:03.419Z,18.5
2023-05-21T00:03:03.540Z,19.2143
2023-05-21T00:04:03.646Z,18.4286
2023-05-21T00:05:03.505Z,19.9286
2023-05-21T00:06:03.592Z,18.5
2023-05-21T00:07:03.540Z,18.2143
2023-05-21T00:08:03.564Z,19
2023-05-21T00:09:03.587Z,19
2023-05-21T00:10:03.633Z,18.2143
2023-05-21T00:11:03.634Z,19
2023-05-21T00:12:03.629Z,17.5
2023-05-21T00:13:03.652Z,17.6429
2023-05-21T00:14:03.673Z,17.8571
2023-05-21T00:15:03.665Z,18.4286
2023-05-21T00:16:03.773Z,18
2023-05-21T00:17:03.689Z,17.4286
2023-05-21T00:18:03.732Z,17.5
2023-05-21T00:19:03.781Z,17.5
2023-05-21T00:20:03.739Z,17.8571
2023-05-21T00:21:03.764Z,17.2143
2023-05-21T00:22:03.808Z,18
2023-05-21T00:23:03.878Z,16.9286
2023-05-21T00:24:03.839Z,17.7143
2023-05-21T00:25:03.888Z,18.4286
2023-05-21T00:26:03.892Z,17.8571
2023-05-21T00:27:03.917Z,17.4286
2023-05-21T00:28:03.957Z,18.1429
2023-05-21T00:29:03.976Z,16.9286
2023-05-21T00:30:03.984Z,18.6429
2023-05-21T00:31:04.002Z,18.3571
2023-05-21T00:32:04.130Z,18.3571
2023-05-21T00:33:04.096Z,20
2023-05-21T00:34:04.095Z,19.2143
2023-05-21T00:35:03.121Z,19.5
2023-05-21T00:36:03.124Z,18.4286
2023-05-21T00:37:03.151Z,19
2023-05-21T00:38:03.158Z,19.4286
2023-05-21T00:39:03.171Z,19
2023-05-21T00:40:03.198Z,18.6429
2023-05-21T00:41:03.219Z,18.4286
2023-05-21T00:42:03.245Z,19.1429
2023-05-21T00:43:03.260Z,17.7143
2023-05-21T00:44:03.256Z,19.1429
2023-05-21T00:45:03.261Z,18.8571
2023-05-21T00:46:03.302Z,19.5
2023-05-21T00:47:03.275Z,18
2023-05-21T00:48:03.358Z,19.6429
2023-05-21T00:49:03.328Z,19.7143
2023-05-21T00:50:03.354Z,18.1429
2023-05-21T00:51:03.366Z,19.3571
2023-05-21T00:52:03.395Z,19.2143
2023-05-21T00:53:03.421Z,18.5
2023-05-21T00:54:03.450Z,18.4286
2023-05-21T00:55:03.458Z,18.5
2023-05-21T00:56:03.501Z,18
2023-05-21T00:57:03.483Z,18.9286
2023-05-21T00:58:03.509Z,18.5
2023-05-21T00:59:03.540Z,19.1429
2023-05-21T01:00:03.546Z,19.4286
2023-05-21T01:01:03.689Z,19.1429
2023-05-21T01:02:03.632Z,18.3571
2023-05-21T01:03:03.689Z,20
2023-05-21T01:04:03.621Z,20.6429
2023-05-21T01:05:03.616Z,19.3571
2023-05-21T01:06:03.635Z,19.7143
2023-05-21T01:07:03.654Z,19.7143
2023-05-21T01:08:03.636Z,18.6429
2023-05-21T01:09:04.947Z,19
2023-05-21T01:10:03.677Z,20.3571
2023-05-21T01:11:03.707Z,19.4286
2023-05-21T01:12:03.745Z,19.4286
2023-05-21T01:13:03.814Z,20.1429
2023-05-21T01:14:03.785Z,20.6429
2023-05-21T01:15:03.818Z,20.1429
2023-05-21T01:16:03.846Z,19
2023-05-21T01:17:03.874Z,20.1429
2023-05-21T01:18:03.948Z,19.9286
2023-05-21T01:19:04.022Z,19.3571
2023-05-21T01:20:03.920Z,19.1429
2023-05-21T01:21:03.944Z,18.6429
2023-05-21T01:22:03.968Z,19.6429
2023-05-21T01:23:04.000Z,18.8571
2023-05-21T01:24:04.029Z,18.9286
2023-05-21T01:25:04.046Z,19
2023-05-21T01:26:04.080Z,19.4286
2023-05-21T01:27:03.125Z,18.7143
2023-05-21T01:28:03.108Z,19.4286
2023-05-21T01:29:03.133Z,18.3571
2023-05-21T01:30:03.155Z,19.6429
2023-05-21T01:31:03.188Z,21.4286
2023-05-21T01:32:03.202Z,19.8571
2023-05-21T01:33:03.429Z,19
2023-05-21T01:34:03.253Z,19.5
2023-05-21T01:35:03.247Z,18.4286
2023-05-21T01:36:03.249Z,19.5
2023-05-21T01:37:03.267Z,19.6429
2023-05-21T01:38:03.263Z,19.6429
2023-05-21T01:39:03.278Z,21.5
2023-05-21T01:40:03.313Z,21.6429
2023-05-21T01:41:03.312Z,21.4286
2023-05-21T01:42:03.336Z,22.1429
2023-05-21T01:43:03.357Z,21.5
2023-05-21T01:44:03.379Z,22.5
2023-05-21T01:45:03.456Z,20
2023-05-21T01:46:03.469Z,20.2143
2023-05-21T01:47:03.528Z,21.1429
2023-05-21T01:48:03.551Z,21.1429
2023-05-21T01:49:03.525Z,20.7143
2023-05-21T01:50:03.550Z,21.3571
2023-05-21T01:51:03.597Z,19.8571
2023-05-21T01:52:03.614Z,21.2143
2023-05-21T01:53:03.651Z,20.1429
2023-05-21T01:54:03.637Z,20.7143
2023-05-21T01:55:03.661Z,21.7143
2023-05-21T01:56:03.674Z,20.8571
2023-05-21T01:57:03.695Z,20
2023-05-21T01:58:03.740Z,19.7143
2023-05-21T01:59:03.733Z,19.6429
2023-05-21T02:00:03.741Z,19.6429
2023-05-21T02:01:03.753Z,19.6429
2023-05-21T02:02:03.836Z,19.2143
2023-05-21T02:03:03.885Z,18.3571
2023-05-21T02:04:03.826Z,20.2143
2023-05-21T02:05:03.785Z,19.9286
2023-05-21T02:06:03.812Z,20.9286
2023-05-21T02:07:03.873Z,19.8571
2023-05-21T02:08:03.870Z,20.8571
2023-05-21T02:09:03.887Z,19.2143
2023-05-21T02:10:03.908Z,19.4286
2023-05-21T02:11:03.935Z,18.9286
2023-05-21T02:12:03.985Z,18.2143
2023-05-21T02:13:03.988Z,19.1429
2023-05-21T02:14:03.996Z,18.8571
2023-05-21T02:15:04.021Z,17.9286
2023-05-21T02:16:04.072Z,19.1429
2023-05-21T02:17:04.102Z,18.3571
2023-05-21T02:18:04.170Z,18.5
2023-05-21T02:19:03.187Z,17.4286
2023-05-21T02:20:03.126Z,16.6429
2023-05-21T02:21:03.134Z,18.6429
2023-05-21T02:22:03.173Z,16.8571
2023-05-21T02:23:03.185Z,17.8571
2023-05-21T02:24:03.179Z,17.8571
2023-05-21T02:25:03.190Z,17.5
2023-05-21T02:26:03.192Z,18.9286
2023-05-21T02:27:03.232Z,18.2143
2023-05-21T02:28:03.215Z,19.5
2023-05-21T02:29:03.234Z,18.1429
2023-05-21T02:30:03.260Z,17.8571
2023-05-21T02:31:03.290Z,18.7143
2023-05-21T02:32:03.323Z,18.8571
2023-05-21T02:33:03.400Z,18.2143
2023-05-21T02:34:03.425Z,18.4286
2023-05-21T02:35:03.379Z,19
2023-05-21T02:36:03.402Z,18.9286
2023-05-21T02:37:03.435Z,18.5
2023-05-21T02:38:03.490Z,17.9286
2023-05-21T02:39:03.512Z,17.6429
2023-05-21T02:40:03.545Z,18.5
2023-05-21T02:41:03.549Z,19.3571
2023-05-21T02:42:03.570Z,19.1429
2023-05-21T02:43:03.596Z,18.4286
2023-05-21T02:44:03.629Z,18
2023-05-21T02:45:03.668Z,18.2143
2023-05-21T02:46:03.706Z,18.3571
2023-05-21T02:47:03.699Z,17.4286
2023-05-21T02:48:03.777Z,17.7143
2023-05-21T02:49:03.742Z,18.6429
2023-05-21T02:50:03.765Z,18.9286
2023-05-21T02:51:03.765Z,18.7143
2023-05-21T02:52:03.788Z,17.8571
2023-05-21T02:53:03.812Z,19.4286
2023-05-21T02:54:03.828Z,18.8571
2023-05-21T02:55:03.853Z,18.4286
2023-05-21T02:56:03.847Z,18.7143
2023-05-21T02:57:03.877Z,18.9286
2023-05-21T02:58:03.871Z,19.5
2023-05-21T02:59:03.876Z,20
2023-05-21T03:00:03.884Z,20.1429
2023-05-21T03:01:03.896Z,19.2143
2023-05-21T03:02:03.929Z,19.9286
2023-05-21T03:03:04.057Z,18.5
2023-05-21T03:04:03.959Z,20.1429
2023-05-21T03:05:03.976Z,20.1429
2023-05-21T03:06:04.010Z,20.2143
2023-05-21T03:07:04.033Z,19.2143
2023-05-21T03:08:04.092Z,20.4286
2023-05-21T03:09:03.100Z,20.9286
2023-05-21T03:10:03.142Z,19.2143
2023-05-21T03:11:03.201Z,21
2023-05-21T03:12:03.183Z,21.1429
2023-05-21T03:13:03.231Z,20.5
2023-05-21T03:14:03.242Z,20.2143
2023-05-21T03:15:03.277Z,22.2143
2023-05-21T03:16:03.270Z,22
2023-05-21T03:17:03.310Z,22.4286
2023-05-21T03:18:03.370Z,22.3571
2023-05-21T03:19:03.388Z,21.2143
2023-05-21T03:20:03.355Z,21.2143
2023-05-21T03:21:03.352Z,21.1429
2023-05-21T03:22:03.382Z,22.1429
2023-05-21T03:23:03.377Z,21.5
2023-05-21T03:24:03.405Z,20.6429
2023-05-21T03:25:03.417Z,21.7143
2023-05-21T03:26:03.425Z,22.4286
2023-05-21T03:27:03.469Z,21.8571
2023-05-21T03:28:03.441Z,22.3571
2023-05-21T03:29:03.480Z,20.4286
2023-05-21T03:30:05.349Z,21.5
2023-05-21T03:31:03.528Z,22.2143
2023-05-21T03:32:03.639Z,22.9286
2023-05-21T03:33:03.663Z,23.3571
2023-05-21T03:34:03.600Z,21.7143
2023-05-21T03:35:03.629Z,23.4286
2023-05-21T03:36:03.653Z,22.1429
2023-05-21T03:37:03.666Z,22.6429
2023-05-21T03:38:03.731Z,23.2143
2023-05-21T03:39:03.769Z,22.2143
2023-05-21T03:40:03.749Z,23.5
2023-05-21T03:41:03.779Z,22.7143
2023-05-21T03:42:03.808Z,24.1429
2023-05-21T03:43:03.807Z,21.3571
2023-05-21T03:44:03.836Z,23
2023-05-21T03:45:03.851Z,23.2143
2023-05-21T03:46:03.897Z,22.1429
2023-05-21T03:47:03.894Z,23.3571
2023-05-21T03:48:04.010Z,22.1429
2023-05-21T03:49:03.929Z,22.6429
2023-05-21T03:50:03.943Z,23.1429
2023-05-21T03:51:03.958Z,22.8571
2023-05-21T03:52:03.966Z,23.3571
2023-05-21T03:53:03.972Z,22.2143
2023-05-21T03:54:04.002Z,24.2143
2023-05-21T03:55:04.006Z,22.5
2023-05-21T03:56:04.001Z,23.7143
2023-05-21T03:57:04.033Z,23.8571
2023-05-21T03:58:04.049Z,22.2143
2023-05-21T03:59:04.078Z,23.6429
2023-05-21T04:00:03.124Z,24
2023-05-21T04:01:03.157Z,22.5
2023-05-21T04:02:03.212Z,24.1429
2023-05-21T04:03:03.272Z,25
2023-05-21T04:04:03.413Z,24
2023-05-21T04:05:03.221Z,24.5
2023-05-21T04:06:03.259Z,23.5
2023-05-21T04:07:03.279Z,24
2023-05-21T04:08:03.289Z,22.6429
2023-05-21T04:09:03.304Z,23
2023-05-21T04:10:03.331Z,23.4286
2023-05-21T04:11:03.351Z,23.4286
2023-05-21T04:12:03.408Z,24.4286
2023-05-21T04:13:03.408Z,24.1429
2023-05-21T04:14:03.390Z,23
2023-05-21T04:15:03.414Z,24
2023-05-21T04:16:03.478Z,22.4286
2023-05-21T04:17:03.445Z,22.7143
2023-05-21T04:18:03.535Z,23.1429
2023-05-21T04:19:03.530Z,23.4286
2023-05-21T04:20:03.475Z,24.7143
2023-05-21T04:21:03.512Z,24.4286
2023-05-21T04:22:03.493Z,24.9286
2023-05-21T04:23:03.538Z,24.4286
2023-05-21T04:24:03.565Z,24.4286
2023-05-21T04:25:03.560Z,24.5
2023-05-21T04:26:03.585Z,24.1429
2023-05-21T04:27:03.633Z,26.6429
2023-05-21T04:28:03.629Z,25.1429
2023-05-21T04:29:03.676Z,24.3571
2023-05-21T04:30:03.691Z,25.4286
2023-05-21T04:31:03.725Z,26.6429
2023-05-21T04:32:03.752Z,23.8571
2023-05-21T04:33:03.789Z,24.8571
2023-05-21T04:34:03.786Z,25.1429
2023-05-21T04:35:03.797Z,24.3571
2023-05-21T04:36:03.861Z,25
2023-05-21T04:37:03.877Z,25.5
2023-05-21T04:38:04.346Z,25.4286
2023-05-21T04:39:03.888Z,25.2143
2023-05-21T04:40:03.920Z,24.4286
2023-05-21T04:41:03.961Z,24.8571
2023-05-21T04:42:03.971Z,24.8571
2023-05-21T04:43:03.982Z,26.6429
2023-05-21T04:44:04.007Z,25.3571
2023-05-21T04:45:04.043Z,24.8571
2023-05-21T04:46:04.018Z,27
2023-05-21T04:47:04.158Z,25.4286
2023-05-21T04:48:04.066Z,26
2023-05-21T04:49:04.044Z,26.8571
2023-05-21T04:50:04.062Z,27.9286
2023-05-21T04:51:04.099Z,26.5
2023-05-21T04:52:03.096Z,26.5
2023-05-21T04:53:03.134Z,25.8571
2023-05-21T04:54:03.163Z,27
2023-05-21T04:55:03.190Z,27
2023-05-21T04:56:03.211Z,27
2023-05-21T04:57:03.263Z,25.7143
2023-05-21T04:58:03.260Z,27.3571
2023-05-21T04:59:05.164Z,26
2023-05-21T05:00:03.319Z,26.7143
2023-05-21T05:01:03.481Z,25.6429
2023-05-21T05:02:03.372Z,25.8571
2023-05-21T05:03:03.467Z,25.9286
2023-05-21T05:04:03.418Z,27.1429
2023-05-21T05:05:03.448Z,26.6429
2023-05-21T05:06:03.439Z,25.6429
2023-05-21T05:07:03.469Z,25.9286
2023-05-21T05:08:03.484Z,26.2143
2023-05-21T05:09:03.509Z,25.7143
2023-05-21T05:10:03.541Z,26.2143
2023-05-21T05:11:03.561Z,26.7143
2023-05-21T05:12:03.550Z,26.2143
2023-05-21T05:13:03.611Z,25.5
2023-05-21T05:14:03.595Z,25.6429
2023-05-21T05:15:03.624Z,26.3571
2023-05-21T05:16:03.680Z,24
2023-05-21T05:17:03.655Z,25.9286
2023-05-21T05:18:03.731Z,26.2143
2023-05-21T05:19:03.693Z,26
2023-05-21T05:20:03.681Z,25
2023-05-21T05:21:03.722Z,26.2143
2023-05-21T05:22:03.756Z,25.5
2023-05-21T05:23:03.940Z,25.9286
2023-05-21T05:24:03.785Z,25.3571
2023-05-21T05:25:03.814Z,26
2023-05-21T05:26:03.840Z,26.1429
2023-05-21T05:27:03.860Z,25.1429
2023-05-21T05:28:03.886Z,26.1429
2023-05-21T05:29:03.938Z,26
2023-05-21T05:30:03.919Z,26.4286
2023-05-21T05:31:03.971Z,26.1429
2023-05-21T05:32:03.968Z,25.1429
2023-05-21T05:33:04.027Z,25.2143
2023-05-21T05:34:04.136Z,25
2023-05-21T05:35:04.060Z,26.2143
2023-05-21T05:36:04.067Z,25.6429
2023-05-21T05:37:04.098Z,26.1429
2023-05-21T05:38:03.105Z,26.3571
2023-05-21T05:39:03.124Z,25.3571
2023-05-21T05:40:03.125Z,25.3571
2023-05-21T05:41:03.138Z,26.2143
2023-05-21T05:42:03.182Z,25.9286
2023-05-21T05:43:03.176Z,24.9286
2023-05-21T05:44:03.188Z,26.6429
2023-05-21T05:45:03.214Z,24.9286
2023-05-21T05:46:03.198Z,26.2143
2023-05-21T05:47:03.224Z,25.7143
2023-05-21T05:48:03.297Z,25.5
2023-05-21T05:49:03.264Z,25.8571
2023-05-21T05:50:03.299Z,25.4286
2023-05-21T05:51:03.312Z,24.9286
2023-05-21T05:52:03.358Z,24.4286
2023-05-21T05:53:03.377Z,25.7143
2023-05-21T05:54:03.403Z,24.8571
2023-05-21T05:55:03.431Z,25.6429
2023-05-21T05:56:03.441Z,25.8571
2023-05-21T05:57:03.479Z,25.3571
2023-05-21T05:58:03.495Z,23.9286
2023-05-21T05:59:03.527Z,24.5
2023-05-21T06:00:03.548Z,25
2023-05-21T06:01:03.568Z,24.6429
2023-05-21T06:02:03.604Z,25
2023-05-21T06:03:03.697Z,25.2143
2023-05-21T06:04:03.642Z,24.3571
2023-05-21T06:05:03.665Z,25.8571
2023-05-21T06:06:03.699Z,25.1429
2023-05-21T06:07:03.715Z,25
2023-05-21T06:08:03.691Z,24.9286
2023-05-21T06:09:03.729Z,24.8571
2023-05-21T06:10:03.717Z,25.9286
2023-05-21T06:11:03.724Z,24.2143
2023-05-21T06:12:03.762Z,25.2143
2023-05-21T06:13:03.735Z,24
2023-05-21T06:14:03.770Z,24.9286
2023-05-21T06:15:03.819Z,23.5
2023-05-21T06:16:03.881Z,23.7143
2023-05-21T06:17:03.849Z,24.6429
2023-05-21T06:18:03.916Z,23.8571
2023-05-21T06:19:03.923Z,23.8571
2023-05-21T06:20:03.915Z,24
2023-05-21T06:21:03.933Z,25.2143
2023-05-21T06:22:03.968Z,23
2023-05-21T06:23:03.984Z,25.3571
2023-05-21T06:24:03.997Z,25.3571
2023-05-21T06:25:04.032Z,25.5
2023-05-21T06:26:04.043Z,24.1429
2023-05-21T06:27:04.101Z,25.6429
2023-05-21T06:28:04.086Z,24.6429
2023-05-21T06:29:03.120Z,24
2023-05-21T06:30:03.123Z,23.7143
2023-05-21T06:31:03.138Z,25.4286
2023-05-21T06:32:03.157Z,23.2143
2023-05-21T06:33:03.321Z,24.2143
2023-05-21T06:34:03.279Z,23.8571
2023-05-21T06:35:03.239Z,23.6429
2023-05-21T06:36:03.215Z,23.2143
2023-05-21T06:37:03.210Z,22.7143
2023-05-21T06:38:03.233Z,24.1429
2023-05-21T06:39:03.245Z,23.3571
2023-05-21T06:40:03.252Z,23.6429
2023-05-21T06:41:03.266Z,22.6429
2023-05-21T06:42:03.300Z,23.9286
2023-05-21T06:43:03.314Z,23.7143
2023-05-21T06:44:03.350Z,24.1429
2023-05-21T06:45:03.377Z,22.8571
2023-05-21T06:46:03.498Z,22.7143
2023-05-21T06:47:03.431Z,23
2023-05-21T06:48:03.501Z,22.8571
2023-05-21T06:49:03.491Z,21.9286
2023-05-21T06:50:03.509Z,22.7143
2023-05-21T06:51:03.550Z,22.8571
2023-05-21T06:52:03.544Z,23
2023-05-21T06:53:03.564Z,22.8571
2023-05-21T06:54:03.587Z,22
2023-05-21T06:55:03.604Z,21.5
2023-05-21T06:56:03.638Z,21.4286
2023-05-21T06:57:03.670Z,21.6429
2023-05-21T06:58:03.649Z,21.4286
2023-05-21T06:59:03.662Z,20.7143
2023-05-21T07:00:03.667Z,21
2023-05-21T07:01:03.680Z,20.7143
2023-05-21T07:02:04.585Z,20.2143
2023-05-21T07:03:03.764Z,20
2023-05-21T07:04:03.707Z,20.6429
2023-05-21T07:05:03.733Z,20.7143
2023-05-21T07:06:03.755Z,19.8571
2023-05-21T07:07:03.799Z,20.7143
2023-05-21T07:08:03.823Z,19.9286
2023-05-21T07:09:03.845Z,20.1429
2023-05-21T07:10:03.871Z,19.8571
2023-05-21T07:11:03.915Z,19.9286
2023-05-21T07:12:03.946Z,20.1429
2023-05-21T07:13:03.966Z,20.7143
2023-05-21T07:14:03.979Z,20.9286
2023-05-21T07:15:04.018Z,19
2023-05-21T07:16:04.043Z,19.5
2023-05-21T07:17:04.071Z,19.6429
2023-05-21T07:18:04.202Z,19.3571
2023-05-21T07:19:03.156Z,18.2143
2023-05-21T07:20:03.120Z,18.4286
2023-05-21T07:21:03.135Z,18.3571
2023-05-21T07:22:03.150Z,18.4286
2023-05-21T07:23:03.173Z,18.8571
2023-05-21T07:24:03.216Z,18.5
2023-05-21T07:25:03.216Z,17.7143
2023-05-21T07:26:03.267Z,17.9286
2023-05-21T07:27:06.597Z,18.9286
2023-05-21T07:28:04.592Z,17.5
2023-05-21T07:29:03.284Z,17.3571
2023-05-21T07:30:03.310Z,17.6429
2023-05-21T07:31:03.352Z,17.3571
2023-05-21T07:32:03.315Z,17.5
2023-05-21T07:33:03.398Z,18.4286
2023-05-21T07:34:03.355Z,17
2023-05-21T07:35:03.367Z,17
2023-05-21T07:36:03.381Z,17
2023-05-21T07:37:03.423Z,16.4286
2023-05-21T07:38:03.454Z,16.4286
2023-05-21T07:39:03.468Z,16.8571
2023-05-21T07:40:03.513Z,16.5
2023-05-21T07:41:03.513Z,16.6429
2023-05-21T07:42:03.545Z,17
2023-05-21T07:43:03.579Z,16.1429
2023-05-21T07:44:03.591Z,16.1429
2023-05-21T07:45:03.614Z,16.6429
2023-05-21T07:46:03.671Z,17.2143
2023-05-21T07:47:03.676Z,15.7143
2023-05-21T07:48:03.733Z,16.6429
2023-05-21T07:49:03.729Z,16.2143
2023-05-21T07:50:03.744Z,17.3571
2023-05-21T07:51:03.761Z,16.4286
2023-05-21T07:52:03.781Z,16.4286
2023-05-21T07:53:03.868Z,15.9286
2023-05-21T07:54:03.846Z,16.7143
2023-05-21T07:55:03.824Z,16.7143
2023-05-21T07:56:03.838Z,16.6429
2023-05-21T07:57:03.855Z,16.5
2023-05-21T07:58:03.873Z,16.5
2023-05-21T07:59:03.895Z,16.5
2023-05-21T08:00:03.884Z,16.9286
2023-05-21T08:01:03.889Z,16.1429
2023-05-21T08:02:03.912Z,15.6429
2023-05-21T08:03:03.998Z,16.6429
2023-05-21T08:04:04.112Z,15.8571
2023-05-21T08:05:04.011Z,16.9286
2023-05-21T08:06:04.006Z,15.9286
2023-05-21T08:07:04.037Z,16.5
2023-05-21T08:08:04.058Z,16.2143
2023-05-21T08:09:04.094Z,15.9286
2023-05-21T08:10:03.163Z,15.4286
2023-05-21T08:11:03.143Z,15.5
2023-05-21T08:12:03.160Z,15.3571
2023-05-21T08:13:03.196Z,15.2143
2023-05-21T08:14:03.223Z,15.7143
2023-05-21T08:15:03.235Z,15.6429
2023-05-21T08:16:03.278Z,15.3571
2023-05-21T08:17:03.279Z,15
2023-05-21T08:18:03.344Z,15.1429
2023-05-21T08:19:03.400Z,15
2023-05-21T08:20:03.320Z,14.5
2023-05-21T08:21:03.341Z,15.3571
2023-05-21T08:22:03.357Z,15.3571
2023-05-21T08:23:03.395Z,15.4286
2023-05-21T08:24:03.371Z,16.3571
2023-05-21T08:25:03.413Z,15.6429
2023-05-21T08:26:03.382Z,15.8571
2023-05-21T08:27:03.399Z,14.5
2023-05-21T08:28:03.445Z,15.3571
2023-05-21T08:29:03.476Z,15.6429
2023-05-21T08:30:03.494Z,15.5
2023-05-21T08:31:03.549Z,17.8571
2023-05-21T08:32:03.640Z,15.6429
2023-05-21T08:33:03.586Z,15.8571
2023-05-21T08:34:03.597Z,15.2143
2023-05-21T08:35:03.635Z,16.1429
2023-05-21T08:36:03.629Z,14.5
2023-05-21T08:37:03.660Z,14.2143
2023-05-21T08:38:03.682Z,14.2143
2023-05-21T08:39:03.697Z,14.2143
2023-05-21T08:40:03.750Z,15.5
2023-05-21T08:41:03.754Z,14.6429
2023-05-21T08:42:03.779Z,14.2143
2023-05-21T08:43:03.796Z,15
2023-05-21T08:44:03.855Z,15.5
2023-05-21T08:45:03.858Z,13.7143
2023-05-21T08:46:03.936Z,15.9286
2023-05-21T08:47:03.911Z,14.9286
2023-05-21T08:48:03.955Z,15.5
2023-05-21T08:49:03.922Z,13.1429
2023-05-21T08:50:03.946Z,14
2023-05-21T08:51:03.946Z,13.6429
2023-05-21T08:52:03.968Z,13.9286
2023-05-21T08:53:07.588Z,13.6429
2023-05-21T08:54:04.006Z,14
2023-05-21T08:55:04.032Z,14.3571
2023-05-21T08:56:04.026Z,14.3571
2023-05-21T08:57:04.016Z,14.8571
2023-05-21T08:58:04.058Z,13.7143
2023-05-21T08:59:04.085Z,14.9286
2023-05-21T09:00:03.108Z,14
2023-05-21T09:01:03.156Z,13.3571
2023-05-21T09:02:03.189Z,13.9286
2023-05-21T09:03:03.313Z,16.4286
2023-05-21T09:04:19.010Z,14.5
2023-05-21T09:05:03.236Z,14
2023-05-21T09:06:03.278Z,14
2023-05-21T09:07:03.319Z,13.1429
2023-05-21T09:08:03.316Z,13.7143
2023-05-21T09:09:03.366Z,13.9286
2023-05-21T09:10:03.366Z,13.7143
2023-05-21T09:11:03.402Z,14.7143
2023-05-21T09:12:03.420Z,14.6429
2023-05-21T09:13:03.454Z,14.3571
2023-05-21T09:14:03.584Z,14.3571
2023-05-21T09:15:03.487Z,14
2023-05-21T09:16:03.493Z,14.6429
2023-05-21T09:17:03.577Z,14.5
2023-05-21T09:18:03.570Z,14.8571
2023-05-21T09:19:04.772Z,13.8571
2023-05-21T09:20:03.563Z,15.3571
2023-05-21T09:21:03.565Z,14.2143
2023-05-21T09:22:03.574Z,14.1429
2023-05-21T09:23:03.610Z,15.1429
2023-05-21T09:24:03.595Z,15.2143
2023-05-21T09:25:03.597Z,14.8571
2023-05-21T09:26:03.600Z,14.4286
2023-05-21T09:27:03.686Z,15.6429
2023-05-21T09:28:03.672Z,16.7143
2023-05-21T09:29:03.720Z,15.8571
2023-05-21T09:30:03.715Z,13.5
2023-05-21T09:31:03.754Z,13.1429
2023-05-21T09:32:03.786Z,13.3571
2023-05-21T09:33:03.862Z,20.1429
2023-05-21T09:34:03.825Z,13.7143
2023-05-21T09:35:03.849Z,14.8571
2023-05-21T09:36:03.870Z,14.1429
2023-05-21T09:38:03.923Z,14.1429
2023-05-21T09:39:03.959Z,14.4286
2023-05-21T09:40:03.957Z,16.1429
2023-05-21T09:41:03.985Z,13.8571
2023-05-21T09:42:04.002Z,13.8571
2023-05-21T09:43:04.025Z,15
2023-05-21T09:44:04.101Z,13.7143
2023-05-21T09:45:04.079Z,13.5
2023-05-21T09:46:04.111Z,14.6429
2023-05-21T09:47:03.094Z,14.4286
2023-05-21T09:48:03.148Z,14.5
2023-05-21T09:49:03.123Z,16.1429
2023-05-21T09:50:03.150Z,12.9286
2023-05-21T09:51:03.147Z,14
2023-05-21T09:52:03.156Z,13.5
2023-05-21T09:53:03.161Z,13
2023-05-21T09:54:03.192Z,12.9286
2023-05-21T09:55:03.220Z,12.8571
2023-05-21T09:56:03.229Z,14.2143
2023-05-21T09:57:03.567Z,12.8571
2023-05-21T09:58:03.279Z,18.9286
2023-05-21T09:59:03.320Z,13.4286
2023-05-21T10:00:03.354Z,19.3571
2023-05-21T10:01:03.373Z,14.8571
2023-05-21T10:02:03.432Z,15
2023-05-21T10:03:03.482Z,13.9286
2023-05-21T10:04:03.478Z,13.9286
2023-05-21T10:05:03.483Z,12.2143
2023-05-21T10:06:03.515Z,14.2143
2023-05-21T10:07:03.546Z,15.7143
2023-05-21T10:08:03.610Z,14
2023-05-21T10:09:05.643Z,12.8571
2023-05-21T10:10:03.634Z,13
2023-05-21T10:11:03.656Z,12.3571
2023-05-21T10:12:03.686Z,15.6429
2023-05-21T10:13:03.707Z,15.5
2023-05-21T10:14:03.774Z,12.7143
2023-05-21T10:15:03.770Z,12.3571
2023-05-21T10:16:03.800Z,13.4286
2023-05-21T10:17:03.823Z,13.8571
2023-05-21T10:18:03.899Z,13.3571
2023-05-21T10:19:03.878Z,12.1429
2023-05-21T10:20:03.866Z,11.9286
2023-05-21T10:21:03.891Z,12.2143
2023-05-21T10:22:03.930Z,11.9286
2023-05-21T10:23:03.978Z,13
2023-05-21T10:24:03.957Z,13.3571
2023-05-21T10:25:04.028Z,13.5
2023-05-21T10:26:03.997Z,11.2143
2023-05-21T10:27:04.008Z,11.3571
2023-05-21T10:28:04.063Z,12.3571
2023-05-21T10:29:04.089Z,11.2143
2023-05-21T10:30:04.049Z,10.5
2023-05-21T10:31:04.096Z,10.7143
2023-05-21T10:32:04.094Z,11.2143
2023-05-21T10:33:04.159Z,10.4286
2023-05-21T10:34:03.123Z,11.2143
2023-05-21T10:35:03.142Z,11.9286
2023-05-21T10:36:03.144Z,10.4286
2023-05-21T10:37:03.206Z,11
2023-05-21T10:38:03.277Z,10.8571
2023-05-21T10:39:03.233Z,12.9286
2023-05-21T10:40:03.253Z,10.8571
2023-05-21T10:41:03.278Z,10.2143
2023-05-21T10:42:03.336Z,12.2143
2023-05-21T10:43:03.378Z,11.5
2023-05-21T10:44:03.348Z,12.9286
2023-05-21T10:45:03.377Z,10.9286
2023-05-21T10:46:03.430Z,9.92857
2023-05-21T10:47:03.425Z,11.1429
2023-05-21T10:48:03.497Z,10.3571
2023-05-21T10:49:03.480Z,9.64286
2023-05-21T10:50:03.482Z,10.3571
2023-05-21T10:51:03.505Z,13
2023-05-21T10:52:03.520Z,10
2023-05-21T10:53:03.545Z,12.6429
2023-05-21T10:54:03.552Z,10.7143
2023-05-21T10:55:03.567Z,12.1429
2023-05-21T10:56:03.561Z,10.7143
2023-05-21T10:57:03.599Z,10.9286
2023-05-21T10:58:03.591Z,10.8571
2023-05-21T10:59:03.596Z,11.4286
2023-05-21T11:00:03.623Z,11
2023-05-21T11:01:03.643Z,10.7143
2023-05-21T11:02:03.694Z,13.7143
2023-05-21T11:03:03.721Z,10
2023-05-21T11:04:03.712Z,10.3571
2023-05-21T11:05:03.782Z,9.5
2023-05-21T11:06:03.775Z,9.35714
2023-05-21T11:07:03.839Z,10.8571
2023-05-21T11:08:03.820Z,11.9286
2023-05-21T11:09:03.852Z,10.1429
2023-05-21T11:10:03.875Z,17.1429
2023-05-21T11:11:03.901Z,12.2143
2023-05-21T11:12:03.939Z,15.1429
2023-05-21T11:13:04.013Z,12.5
2023-05-21T11:14:03.968Z,15
2023-05-21T11:15:03.996Z,11.7143
2023-05-21T11:16:04.024Z,10.6429
2023-05-21T11:17:04.108Z,10.7143
2023-05-21T11:18:04.110Z,16.2143
2023-05-21T11:19:03.239Z,13
2023-05-21T11:20:03.119Z,12
2023-05-21T11:21:03.144Z,11.7143
2023-05-21T11:22:03.168Z,10.8571
2023-05-21T11:23:03.182Z,14.4286
2023-05-21T11:24:03.261Z,12
2023-05-21T11:25:03.223Z,10.7143
2023-05-21T11:26:03.232Z,11.2143
2023-05-21T11:27:03.245Z,11.2143
2023-05-21T11:28:03.257Z,12
2023-05-21T11:29:03.321Z,12.6429
2023-05-21T11:30:03.285Z,11.1429
2023-05-21T11:31:03.304Z,12.6429
2023-05-21T11:32:03.287Z,9.5
2023-05-21T11:33:03.367Z,10.9286
2023-05-21T11:34:03.348Z,10.8571
2023-05-21T11:35:03.372Z,11
2023-05-21T11:36:03.438Z,11.6429
2023-05-21T11:37:03.455Z,11
2023-05-21T11:38:03.456Z,9.21429
2023-05-21T11:39:03.477Z,9.35714
2023-05-21T11:40:03.509Z,8.92857
2023-05-21T11:41:03.537Z,10.7143
2023-05-21T11:42:04.809Z,9.42857
2023-05-21T11:43:03.601Z,8.35714
2023-05-21T11:44:03.614Z,9.14286
2023-05-21T11:45:03.656Z,10
2023-05-21T11:46:03.730Z,10
2023-05-21T11:47:03.684Z,22.4286
2023-05-21T11:48:03.762Z,12.2143
2023-05-21T11:49:03.754Z,14.5
2023-05-21T11:50:03.771Z,9.64286
2023-05-21T11:51:03.777Z,10.7143
2023-05-21T11:52:03.804Z,9.21429
2023-05-21T11:53:03.830Z,9.14286
2023-05-21T11:54:03.846Z,9.92857
2023-05-21T11:55:03.857Z,15.4286
2023-05-21T11:56:03.888Z,11.1429
2023-05-21T11:57:03.930Z,10.2143
2023-05-21T11:58:03.910Z,10.4286
2023-05-21T11:59:03.931Z,9.14286
2023-05-21T12:00:03.938Z,8.42857
2023-05-21T12:01:03.957Z,8.21429
2023-05-21T12:02:03.981Z,8.64286
2023-05-21T12:03:04.028Z,8.42857
2023-05-21T12:04:04.072Z,10
2023-05-21T12:05:04.000Z,13
2023-05-21T12:06:04.120Z,9.71429
2023-05-21T12:07:04.050Z,9.35714
2023-05-21T12:08:04.115Z,10.4286
2023-05-21T12:09:04.111Z,9.14286
2023-05-21T12:10:03.114Z,8.42857
2023-05-21T12:11:03.154Z,9.42857
2023-05-21T12:12:03.164Z,9.92857
2023-05-21T12:13:03.179Z,98.5
2023-05-21T12:14:03.264Z,13.1429
2023-05-21T12:15:03.233Z,8.42857
2023-05-21T12:16:04.576Z,8.64286
2023-05-21T12:17:03.293Z,10.8571
2023-05-21T12:18:03.333Z,9.5
2023-05-21T12:19:03.370Z,11
2023-05-21T12:20:03.331Z,9.71429
2023-05-21T12:21:03.368Z,10.6429
2023-05-21T12:22:03.407Z,9.85714
2023-05-21T12:23:03.393Z,8.71429
2023-05-21T12:24:03.416Z,8.21429
2023-05-21T12:25:03.427Z,9.14286
2023-05-21T12:26:03.438Z,8.35714
2023-05-21T12:27:03.462Z,8.5